Time;durP1;ratioP1;P1;durP2;ratioP2;P2;SDS_P1;SDS_P2;PMS_P1;PMS_P2;Temp;Humidity;BMP_temperature;BMP_pressure;BME280_temperature;BME280_humidity;BME280_pressure;Samples;Min_cycle;Max_cycle;Signal;HPM_P1;HPM_P2
2022/07/09 00:02:21;;;;;;;15.20;8.38;;;;;;;19.38;100.00;100305.12;1772920;80;21030;-42
2022/07/09 00:04:47;;;;;;;10.65;7.97;;;;;;;19.46;100.00;100323.88;1777397;79;20940;-41
2022/07/09 00:07:14;;;;;;;16.67;8.33;;;;;;;19.56;100.00;100356.14;1765362;80;20947;-41
2022/07/09 00:09:43;;;;;;;11.33;7.17;;;;;;;19.63;100.00;100371.94;1770193;78;20971;-40
2022/07/09 00:12:10;;;;;;;12.10;8.10;;;;;;;19.70;100.00;100369.78;1765948;80;20982;-41
2022/07/09 00:14:37;;;;;;;16.12;6.95;;;;;;;19.75;100.00;100356.77;1778330;78;20964;-42
2022/07/09 00:17:04;;;;;;;9.58;7.80;;;;;;;19.83;100.00;100352.38;1771899;80;20967;-41
2022/07/09 00:19:32;;;;;;;11.75;6.55;;;;;;;19.88;100.00;100360.00;1772086;80;21022;-40
2022/07/09 00:21:59;;;;;;;22.70;7.30;;;;;;;19.88;100.00;100362.63;1772159;78;21409;-41
2022/07/09 00:24:25;;;;;;;11.22;7.30;;;;;;;19.85;100.00;100356.25;1772137;78;21497;-41
2022/07/09 00:26:52;;;;;;;12.10;6.50;;;;;;;19.80;100.00;100345.52;1773449;80;20987;-42
2022/07/09 00:29:19;;;;;;;11.10;6.37;;;;;;;19.84;100.00;100338.80;1759783;80;20995;-42
2022/07/09 00:31:46;;;;;;;10.00;5.20;;;;;;;19.86;100.00;100340.38;1749887;81;20944;-42
2022/07/09 00:34:12;;;;;;;6.92;4.72;;;;;;;19.90;100.00;100337.12;1762026;79;21409;-40
2022/07/09 00:36:40;;;;;;;12.05;4.12;;;;;;;19.93;100.00;100338.27;1764087;80;20995;-40
2022/07/09 00:39:07;;;;;;;12.07;4.60;;;;;;;19.98;100.00;100338.84;1757471;80;20983;-41
2022/07/09 00:41:34;;;;;;;10.53;3.95;;;;;;;20.06;100.00;100343.64;1768693;79;20995;-42
2022/07/09 00:44:01;;;;;;;6.85;3.27;;;;;;;20.12;100.00;100346.38;1765913;79;21529;-42
2022/07/09 00:46:28;;;;;;;3.42;3.10;;;;;;;20.13;100.00;100346.75;1764355;80;21077;-41
2022/07/09 00:48:55;;;;;;;6.47;3.02;;;;;;;20.09;100.00;100352.64;1756518;79;20995;-40
2022/07/09 00:51:24;;;;;;;3.15;2.87;;;;;;;20.10;100.00;100355.20;1710797;82;21002;-42
2022/07/09 00:53:51;;;;;;;13.15;3.22;;;;;;;20.08;100.00;100346.56;1755448;79;20983;-41
2022/07/09 00:56:18;;;;;;;11.68;3.50;;;;;;;20.07;100.00;100342.70;1760362;79;21011;-42
2022/07/09 00:58:45;;;;;;;10.75;2.58;;;;;;;20.05;100.00;100345.41;1763483;79;21215;-42
2022/07/09 01:01:12;;;;;;;5.00;3.00;;;;;;;20.02;100.00;100356.10;1761644;79;21042;-41
2022/07/09 01:03:41;;;;;;;7.67;2.90;;;;;;;20.01;100.00;100358.84;1763728;79;21017;-42
2022/07/09 01:06:08;;;;;;;3.37;2.55;;;;;;;19.99;100.00;100345.78;1763097;80;21694;-40
2022/07/09 01:08:36;;;;;;;10.18;2.60;;;;;;;20.00;100.00;100336.96;1757478;79;20975;-42
2022/07/09 01:11:02;;;;;;;5.55;3.08;;;;;;;19.99;100.00;100347.09;1769825;80;21229;-42
2022/07/09 01:13:29;;;;;;;12.53;3.45;;;;;;;19.98;100.00;100348.03;1765907;79;21054;-41
2022/07/09 01:15:56;;;;;;;7.65;3.67;;;;;;;19.98;100.00;100351.97;1742969;80;21030;-41
2022/07/09 01:18:23;;;;;;;8.38;4.10;;;;;;;19.97;100.00;100338.95;1761626;80;21039;-42
2022/07/09 01:20:52;;;;;;;6.05;4.15;;;;;;;19.99;100.00;100339.70;1757705;79;21007;-42
2022/07/09 01:23:19;;;;;;;5.35;4.03;;;;;;;19.98;100.00;100348.03;1770103;79;21216;-42
2022/07/09 01:25:46;;;;;;;6.00;3.58;;;;;;;19.98;100.00;100340.64;1767902;80;21437;-42
2022/07/09 01:28:13;;;;;;;6.97;3.95;;;;;;;19.95;100.00;100333.29;1755555;79;20933;-42
2022/07/09 01:30:41;;;;;;;6.05;3.30;;;;;;;19.95;100.00;100328.52;1754102;79;20945;-42
2022/07/09 01:33:08;;;;;;;5.85;3.22;;;;;;;19.95;100.00;100345.59;1744776;79;20929;-42
2022/07/09 01:35:34;;;;;;;10.60;3.72;;;;;;;19.93;100.00;100327.77;1760512;80;21036;-42
2022/07/09 01:38:01;;;;;;;5.05;3.42;;;;;;;19.90;100.00;100318.73;1747816;80;21050;-42
2022/07/09 01:40:28;;;;;;;5.40;3.30;;;;;;;19.86;100.00;100321.17;1763775;79;20996;-41
2022/07/09 01:42:56;;;;;;;8.75;3.00;;;;;;;19.86;100.00;100321.17;1751482;80;21000;-40
2022/07/09 01:45:23;;;;;;;5.17;3.30;;;;;;;19.83;100.00;100335.31;1757997;79;20964;-42
2022/07/09 01:47:50;;;;;;;3.45;3.12;;;;;;;19.80;100.00;100332.39;1760687;80;21239;-42
2022/07/09 01:50:17;;;;;;;5.97;3.10;;;;;;;19.78;100.00;100326.39;1754355;80;20987;-42
2022/07/09 01:52:44;;;;;;;3.80;3.45;;;;;;;19.74;100.00;100318.80;1760977;80;20889;-42
2022/07/09 01:55:11;;;;;;;8.40;3.67;;;;;;;19.68;100.00;100321.31;1758796;80;20896;-41
2022/07/09 01:57:39;;;;;;;9.30;5.00;;;;;;;19.62;100.00;100322.52;1758299;80;21018;-42
2022/07/09 02:00:07;;;;;;;7.37;6.67;;;;;;;19.58;100.00;100320.15;1757976;79;21142;-42
2022/07/09 02:02:40;;;;;;;14.93;7.70;;;;;;;19.53;100.00;100315.19;1756686;79;21521;-41
2022/07/09 02:05:07;;;;;;;12.15;8.68;;;;;;;19.48;100.00;100311.51;1760583;80;20963;-41
2022/07/09 02:07:34;;;;;;;19.92;8.05;;;;;;;19.43;100.00;100316.64;1761769;79;20971;-41
2022/07/09 02:10:01;;;;;;;11.30;7.55;;;;;;;19.38;100.00;100319.06;1744793;79;20965;-41
2022/07/09 02:12:28;;;;;;;12.70;6.75;;;;;;;19.36;100.00;100317.48;1757689;80;21058;-42
2022/07/09 02:14:55;;;;;;;8.28;6.28;;;;;;;19.33;100.00;100318.49;1749659;79;21470;-42
2022/07/09 02:17:22;;;;;;;11.55;5.85;;;;;;;19.31;100.00;100332.17;1755211;80;20925;-40
2022/07/09 02:19:49;;;;;;;9.28;5.33;;;;;;;19.28;100.00;100331.48;1756872;79;21603;-40
2022/07/09 02:22:16;;;;;;;10.93;4.90;;;;;;;19.24;100.00;100340.02;1755795;79;20984;-42
2022/07/09 02:24:43;;;;;;;6.12;4.47;;;;;;;19.21;100.00;100346.27;1758800;80;21298;-42
2022/07/09 02:27:11;;;;;;;9.08;3.83;;;;;;;19.20;100.00;100342.44;1757856;79;21015;-42
2022/07/09 02:29:39;;;;;;;7.00;3.90;;;;;;;19.17;100.00;100342.14;1765729;79;21022;-42
2022/07/09 02:32:09;;;;;;;5.75;3.72;;;;;;;19.15;100.00;100328.27;1749672;80;20940;-40
2022/07/09 02:34:38;;;;;;;3.22;3.02;;;;;;;19.13;100.00;100339.31;1766345;80;21047;-41
2022/07/09 02:37:05;;;;;;;6.08;3.20;;;;;;;19.12;100.00;100348.11;1756110;80;21099;-41
2022/07/09 02:39:32;;;;;;;5.42;2.95;;;;;;;19.11;100.00;100351.67;1760622;80;20905;-41
2022/07/09 02:42:01;;;;;;;5.83;3.00;;;;;;;19.09;100.00;100349.60;1758003;79;20975;-42
2022/07/09 02:44:27;;;;;;;6.45;2.92;;;;;;;19.08;100.00;100334.80;1761944;80;21027;-41
2022/07/09 02:46:54;;;;;;;9.45;2.72;;;;;;;19.05;99.85;100326.62;1767919;80;20991;-41
2022/07/09 02:49:25;;;;;;;6.92;2.40;;;;;;;19.03;99.71;100320.62;1765867;80;22560;-41
2022/07/09 02:51:51;;;;;;;11.22;2.75;;;;;;;19.03;99.10;100326.31;1724562;82;21054;-41
2022/07/09 02:54:18;;;;;;;3.17;2.30;;;;;;;19.00;99.13;100322.56;1763901;79;20963;-41
2022/07/09 02:56:44;;;;;;;8.43;2.52;;;;;;;18.99;99.15;100323.49;1761310;80;20916;-41
2022/07/09 02:59:11;;;;;;;3.95;2.87;;;;;;;18.95;98.42;100332.81;1763184;79;21510;-41
2022/07/09 03:01:38;;;;;;;4.00;2.45;;;;;;;18.91;97.72;100336.54;1758508;80;22625;-41
2022/07/09 03:04:04;;;;;;;4.80;2.45;;;;;;;18.88;97.30;100336.72;1770125;79;20896;-41
2022/07/09 03:06:32;;;;;;;4.67;2.90;;;;;;;18.84;97.67;100339.58;1756279;80;20978;-41
2022/07/09 03:08:59;;;;;;;3.22;2.35;;;;;;;18.81;97.74;100328.78;1765244;79;21482;-41
2022/07/09 03:11:26;;;;;;;6.75;2.30;;;;;;;18.79;97.91;100323.64;1753294;80;21054;-41
2022/07/09 03:13:54;;;;;;;4.05;2.62;;;;;;;18.78;98.21;100320.64;1765309;80;21161;-42
2022/07/09 03:16:20;;;;;;;2.33;2.22;;;;;;;18.78;97.81;100317.16;1759039;80;21030;-42
2022/07/09 03:18:47;;;;;;;5.90;2.45;;;;;;;18.77;98.40;100311.53;1768300;79;21337;-41
2022/07/09 03:21:14;;;;;;;9.53;2.65;;;;;;;18.75;97.06;100322.13;1767795;79;20909;-41
2022/07/09 03:23:41;;;;;;;7.33;2.85;;;;;;;18.76;97.27;100329.51;1757004;79;21015;-41
2022/07/09 03:26:07;;;;;;;10.78;2.70;;;;;;;18.79;96.96;100341.13;1764508;80;21086;-41
2022/07/09 03:28:34;;;;;;;3.80;2.60;;;;;;;18.80;96.14;100338.45;1743520;81;20983;-41
2022/07/09 03:31:01;;;;;;;4.20;2.60;;;;;;;18.83;95.71;100329.58;1766408;80;20932;-41
2022/07/09 03:33:28;;;;;;;5.55;2.58;;;;;;;18.84;95.83;100327.33;1762655;79;21540;-41
2022/07/09 03:35:55;;;;;;;4.58;2.40;;;;;;;18.90;95.78;100341.41;1765998;80;20987;-41
2022/07/09 03:38:24;;;;;;;3.92;2.92;;;;;;;18.96;95.58;100345.47;1771106;80;22613;-41
2022/07/09 03:40:52;;;;;;;5.75;3.15;;;;;;;19.02;94.71;100339.05;1775392;79;21036;-41
2022/07/09 03:43:19;;;;;;;11.18;3.02;;;;;;;19.06;94.12;100336.63;1772460;79;21011;-41
2022/07/09 03:45:47;;;;;;;4.45;2.87;;;;;;;19.08;93.74;100337.42;1765587;79;21651;-41
2022/07/09 03:48:14;;;;;;;3.02;2.72;;;;;;;19.04;93.82;100343.74;1770471;80;20932;-41
2022/07/09 03:50:42;;;;;;;4.75;2.80;;;;;;;19.04;93.72;100341.13;1770992;80;21281;-41
2022/07/09 03:53:09;;;;;;;8.05;3.40;;;;;;;19.03;93.82;100341.60;1755346;80;20984;-41
2022/07/09 03:55:36;;;;;;;9.25;3.27;;;;;;;18.99;93.20;100340.09;1753870;80;20971;-41
2022/07/09 03:58:02;;;;;;;6.10;3.12;;;;;;;18.95;93.72;100336.75;1779196;79;20971;-41
2022/07/09 04:00:29;;;;;;;3.17;2.98;;;;;;;18.94;94.07;100346.86;1771848;79;20970;-41
2022/07/09 04:02:56;;;;;;;4.05;3.22;;;;;;;18.92;94.27;100338.68;1767815;79;21365;-41
2022/07/09 04:05:23;;;;;;;8.53;3.30;;;;;;;18.95;94.39;100340.68;1769323;80;21560;-41
2022/07/09 04:07:50;;;;;;;5.37;3.20;;;;;;;18.99;94.08;100341.85;1757908;80;20932;-41
2022/07/09 04:10:18;;;;;;;5.08;3.00;;;;;;;18.98;94.20;100333.57;1773463;79;21658;-41
2022/07/09 04:12:44;;;;;;;5.70;3.47;;;;;;;18.95;94.68;100333.30;1769784;79;20982;-41
2022/07/09 04:15:11;;;;;;;4.12;3.60;;;;;;;18.96;95.04;100332.36;1771050;80;21091;-42
2022/07/09 04:17:38;;;;;;;7.80;3.20;;;;;;;19.03;94.91;100338.12;1772030;79;20963;-41
2022/07/09 04:20:06;;;;;;;6.65;3.15;;;;;;;19.08;94.63;100343.50;1768356;79;20944;-41
2022/07/09 04:22:33;;;;;;;7.12;2.72;;;;;;;19.15;94.36;100343.14;1766370;79;21592;-41
2022/07/09 04:25:00;;;;;;;4.40;3.05;;;;;;;19.20;94.22;100354.25;1768822;79;20983;-41
2022/07/09 04:27:27;;;;;;;4.45;2.87;;;;;;;19.26;94.33;100355.66;1765658;80;22052;-41
2022/07/09 04:29:55;;;;;;;8.43;3.42;;;;;;;19.33;94.24;100349.16;1738190;81;20906;-41
2022/07/09 04:32:21;;;;;;;10.90;3.58;;;;;;;19.37;93.14;100354.12;1727829;81;20948;-41
2022/07/09 04:34:47;;;;;;;3.87;3.22;;;;;;;19.41;92.71;100360.05;1733540;81;21018;-41
2022/07/09 04:37:14;;;;;;;5.83;3.45;;;;;;;19.44;93.85;100355.93;1737205;81;20947;-42
2022/07/09 04:39:40;;;;;;;5.42;3.30;;;;;;;19.52;93.77;100360.75;1750655;81;21092;-41
2022/07/09 04:42:12;;;;;;;12.65;3.80;;;;;;;19.59;93.26;100351.58;1732142;81;20897;-41
2022/07/09 04:44:38;;;;;;;5.40;3.10;;;;;;;19.74;93.90;100344.58;1740612;81;21010;-41
2022/07/09 04:47:05;;;;;;;7.17;3.85;;;;;;;19.94;93.10;100346.53;1735880;81;21082;-41
2022/07/09 04:49:31;;;;;;;4.47;3.70;;;;;;;20.15;91.96;100341.76;1724241;81;20979;-41
2022/07/09 04:51:58;;;;;;;15.68;3.70;;;;;;;20.33;89.71;100339.78;1731375;81;21114;-42
2022/07/09 04:54:25;;;;;;;4.92;3.87;;;;;;;20.45;88.75;100339.50;1733901;81;20963;-41
2022/07/09 04:56:52;;;;;;;4.33;3.22;;;;;;;20.65;88.79;100333.02;1738144;81;20971;-42
2022/07/09 04:59:19;;;;;;;3.72;3.25;;;;;;;20.86;88.13;100326.06;1744057;81;21544;-42
2022/07/09 05:01:46;;;;;;;12.90;4.40;;;;;;;21.02;86.56;100326.38;1740339;81;20951;-42
2022/07/09 05:04:13;;;;;;;3.98;3.55;;;;;;;21.13;85.40;100336.20;1744418;79;21080;-41
2022/07/09 05:06:40;;;;;;;8.33;3.40;;;;;;;21.21;85.52;100315.03;1725815;81;20932;-41
2022/07/09 05:09:07;;;;;;;3.30;2.90;;;;;;;21.41;85.57;100312.88;1733012;81;20978;-42
2022/07/09 05:11:34;;;;;;;5.22;3.80;;;;;;;21.63;85.25;100315.39;1737300;81;20963;-41
2022/07/09 05:14:02;;;;;;;9.10;4.17;;;;;;;21.81;82.93;100313.33;1752105;81;21014;-41
2022/07/09 05:16:28;;;;;;;4.47;3.65;;;;;;;21.76;81.97;100312.31;1738564;81;21998;-41
2022/07/09 05:18:55;;;;;;;4.83;3.40;;;;;;;21.74;82.63;100314.70;1731896;81;20979;-41
2022/07/09 05:21:22;;;;;;;6.90;4.00;;;;;;;21.78;82.84;100304.32;1736407;81;20956;-41
2022/07/09 05:23:49;;;;;;;4.40;4.05;;;;;;;21.81;82.09;100310.20;1738801;81;20959;-41
2022/07/09 05:26:16;;;;;;;8.53;3.95;;;;;;;21.92;81.80;100308.16;1740140;81;20983;-41
2022/07/09 05:28:42;;;;;;;5.55;4.15;;;;;;;22.07;82.17;100310.20;1745593;80;21119;-42
2022/07/09 05:31:09;;;;;;;4.45;3.90;;;;;;;22.36;80.79;100303.85;1763813;80;20979;-41
2022/07/09 05:33:36;;;;;;;8.73;4.00;;;;;;;22.54;79.88;100316.23;1777741;80;20992;-41
2022/07/09 05:36:04;;;;;;;13.30;4.47;;;;;;;22.57;79.34;100316.01;1768999;80;20984;-42
2022/07/09 05:38:31;;;;;;;5.37;4.50;;;;;;;22.73;79.33;100311.79;1770656;80;21647;-42
2022/07/09 05:40:58;;;;;;;4.60;4.00;;;;;;;22.92;77.83;100311.78;1758782;80;21362;-41
2022/07/09 05:43:24;;;;;;;14.53;4.70;;;;;;;22.95;76.98;100312.41;1776735;80;20908;-41
2022/07/09 05:45:52;;;;;;;8.13;4.55;;;;;;;22.85;77.64;100307.42;1761053;80;21071;-42
2022/07/09 05:48:18;;;;;;;6.33;5.50;;;;;;;22.96;77.48;100304.86;1767397;80;21506;-41
2022/07/09 05:50:45;;;;;;;9.30;5.75;;;;;;;23.17;76.85;100307.34;1762544;80;20992;-42
2022/07/09 05:53:12;;;;;;;10.43;4.97;;;;;;;23.30;77.33;100299.38;1758074;80;21544;-42
2022/07/09 05:55:39;;;;;;;9.10;4.47;;;;;;;23.47;76.02;100302.92;1765955;80;21030;-43
2022/07/09 05:58:08;;;;;;;12.65;5.30;;;;;;;23.63;75.05;100293.85;1759081;80;20983;-41
2022/07/09 06:00:35;;;;;;;7.33;5.03;;;;;;;23.66;75.35;100295.76;1762194;80;21835;-42
2022/07/09 06:03:02;;;;;;;7.87;5.30;;;;;;;23.86;76.52;100289.89;1755487;80;21030;-41
2022/07/09 06:05:29;;;;;;;11.18;5.10;;;;;;;23.98;73.82;100290.27;1758441;80;21846;-41
2022/07/09 06:07:56;;;;;;;7.78;5.12;;;;;;;24.04;73.64;100295.11;1754002;80;21552;-41
2022/07/09 06:10:24;;;;;;;8.35;5.60;;;;;;;24.03;72.81;100287.31;1760475;80;20962;-41
2022/07/09 06:12:52;;;;;;;9.40;5.00;;;;;;;24.05;73.53;100286.22;1760155;80;21019;-41
2022/07/09 06:15:19;;;;;;;7.97;5.05;;;;;;;24.34;74.04;100282.25;1754450;80;21014;-41
2022/07/09 06:17:46;;;;;;;6.42;4.85;;;;;;;24.65;72.10;100280.64;1763531;79;22448;-41
2022/07/09 06:20:13;;;;;;;10.88;4.92;;;;;;;24.69;69.85;100282.53;1766216;80;20933;-41
2022/07/09 06:22:40;;;;;;;13.03;5.22;;;;;;;24.54;70.46;100280.17;1766435;80;20976;-41
2022/07/09 06:25:08;;;;;;;12.10;6.15;;;;;;;24.50;70.86;100272.60;1762021;80;21454;-42
2022/07/09 06:27:37;;;;;;;5.87;4.87;;;;;;;24.59;69.59;100279.78;1763575;80;20944;-41
2022/07/09 06:30:06;;;;;;;6.87;4.90;;;;;;;24.64;70.59;100271.48;1763563;80;21251;-41
2022/07/09 06:32:32;;;;;;;9.20;5.25;;;;;;;24.89;70.83;100274.34;1755912;80;21013;-43
2022/07/09 06:35:00;;;;;;;6.28;4.60;;;;;;;24.89;69.25;100270.84;1769572;80;20905;-40
2022/07/09 06:37:26;;;;;;;5.33;4.90;;;;;;;24.87;69.75;100260.36;1764649;80;21508;-41
2022/07/09 06:39:55;;;;;;;7.53;5.10;;;;;;;24.98;69.87;100263.95;1755280;80;20988;-41
2022/07/09 06:42:22;;;;;;;9.73;5.55;;;;;;;24.92;69.37;100256.88;1759404;80;21210;-44
2022/07/09 06:44:51;;;;;;;10.53;5.40;;;;;;;24.90;69.17;100272.05;1717318;82;20989;-42
2022/07/09 06:47:17;;;;;;;7.20;4.97;;;;;;;24.99;69.10;100272.25;1714925;83;21517;-42
2022/07/09 06:49:44;;;;;;;6.90;5.00;;;;;;;25.07;67.85;100267.15;1710348;82;20974;-41
2022/07/09 06:52:11;;;;;;;10.95;5.40;;;;;;;25.03;69.27;100265.26;1700849;83;21028;-43
2022/07/09 06:54:39;;;;;;;13.75;5.35;;;;;;;25.15;68.39;100271.34;1693145;82;21248;-41
2022/07/09 06:57:06;;;;;;;11.08;5.22;;;;;;;25.02;67.76;100260.94;1711276;83;21002;-42
2022/07/09 06:59:33;;;;;;;7.00;5.28;;;;;;;24.98;67.51;100263.45;1701082;83;21027;-42
2022/07/09 07:02:00;;;;;;;11.78;6.40;;;;;;;25.07;69.39;100256.56;1742591;82;20976;-42
2022/07/09 07:04:27;;;;;;;9.28;5.67;;;;;;;25.23;67.73;100258.30;1702442;83;21028;-42
2022/07/09 07:06:54;;;;;;;13.00;5.75;;;;;;;25.35;66.53;100257.75;1706039;83;21326;-42
2022/07/09 07:09:23;;;;;;;9.30;5.35;;;;;;;25.46;67.39;100251.55;1720540;82;21012;-43
2022/07/09 07:11:52;;;;;;;7.33;5.75;;;;;;;25.53;66.85;100256.70;1695672;83;20977;-42
2022/07/09 07:14:18;;;;;;;9.08;5.87;;;;;;;25.58;67.96;100257.64;1726101;82;21005;-42
2022/07/09 07:16:46;;;;;;;8.65;5.90;;;;;;;25.68;67.04;100263.00;1700367;82;20957;-42
2022/07/09 07:19:12;;;;;;;8.60;5.92;;;;;;;25.79;66.29;100257.59;1725341;82;21253;-42
2022/07/09 07:21:40;;;;;;;11.38;5.97;;;;;;;25.71;65.13;100265.38;1725257;82;21492;-42
2022/07/09 07:24:07;;;;;;;15.28;5.95;;;;;;;25.56;65.66;100271.98;1727179;82;21001;-42
2022/07/09 07:26:34;;;;;;;7.55;5.78;;;;;;;25.43;65.13;100282.27;1730698;82;21472;-42
2022/07/09 07:29:01;;;;;;;17.70;6.40;;;;;;;25.31;66.42;100283.28;1694848;83;21009;-41
2022/07/09 07:31:28;;;;;;;6.65;5.80;;;;;;;25.22;66.33;100288.39;1688426;83;21760;-42
2022/07/09 07:33:59;;;;;;;8.45;5.42;;;;;;;25.30;67.57;100277.63;1685706;83;21052;-42
2022/07/09 07:36:26;;;;;;;12.40;5.87;;;;;;;25.45;67.54;100279.47;1677158;83;20995;-42
2022/07/09 07:38:54;;;;;;;10.05;6.97;;;;;;;25.80;66.04;100275.17;1678385;83;21012;-41
2022/07/09 07:41:21;;;;;;;10.08;6.05;;;;;;;25.96;63.59;100273.87;1682480;83;20991;-42
2022/07/09 07:43:47;;;;;;;15.28;6.62;;;;;;;25.86;64.55;100270.31;1680954;83;21145;-42
2022/07/09 07:46:14;;;;;;;15.32;5.80;;;;;;;25.70;64.79;100269.00;1689920;83;21068;-42
2022/07/09 07:48:41;;;;;;;9.25;5.62;;;;;;;25.82;65.53;100269.26;1738212;80;20947;-41
2022/07/09 07:51:10;;;;;;;7.67;5.33;;;;;;;25.94;62.85;100267.36;1717992;80;20961;-42
2022/07/09 07:53:37;;;;;;;7.62;5.05;;;;;;;25.89;64.03;100261.63;1745094;80;20977;-42
2022/07/09 07:56:05;;;;;;;7.62;5.85;;;;;;;25.69;63.30;100268.65;1737522;80;21109;-42
2022/07/09 07:58:32;;;;;;;7.25;5.70;;;;;;;25.67;65.02;100271.41;1741461;80;21476;-42
2022/07/09 08:00:59;;;;;;;5.85;5.25;;;;;;;25.97;64.25;100271.56;1734351;82;21658;-42
2022/07/09 08:03:26;;;;;;;9.88;5.28;;;;;;;26.15;63.79;100256.36;1723554;80;20970;-42
2022/07/09 08:05:53;;;;;;;8.78;5.62;;;;;;;26.45;63.72;100257.30;1734471;80;21554;-42
2022/07/09 08:08:20;;;;;;;6.05;5.15;;;;;;;26.57;62.32;100252.20;1732518;80;21002;-42
2022/07/09 08:10:49;;;;;;;6.75;5.37;;;;;;;26.59;62.03;100248.10;1746419;80;20959;-42
2022/07/09 08:13:18;;;;;;;9.95;5.80;;;;;;;26.60;62.74;100246.63;1746883;80;21564;-43
2022/07/09 08:15:45;;;;;;;11.08;5.25;;;;;;;26.84;61.86;100241.39;1742423;80;21413;-41
2022/07/09 08:18:13;;;;;;;7.25;5.75;;;;;;;26.93;59.87;100240.61;1740437;80;21029;-42
2022/07/09 08:20:41;;;;;;;8.00;5.33;;;;;;;27.05;60.73;100237.80;1731898;80;21248;-42
2022/07/09 08:23:09;;;;;;;9.83;5.45;;;;;;;27.36;61.07;100243.77;1744422;80;20966;-42
2022/07/09 08:25:35;;;;;;;11.33;5.78;;;;;;;27.65;58.05;100239.36;1737930;80;20900;-42
2022/07/09 08:28:03;;;;;;;16.60;6.58;;;;;;;27.63;58.17;100242.66;1739607;80;21560;-42
2022/07/09 08:30:30;;;;;;;10.58;5.47;;;;;;;27.76;58.35;100245.84;1749560;79;20993;-42
2022/07/09 08:32:57;;;;;;;13.22;5.90;;;;;;;27.67;57.24;100249.39;1763721;79;21062;-43
2022/07/09 08:35:25;;;;;;;7.22;5.33;;;;;;;27.53;59.43;100242.69;1765208;79;21495;-42
2022/07/09 08:37:53;;;;;;;16.37;6.15;;;;;;;27.63;59.11;100242.66;1757090;79;20944;-41
2022/07/09 08:52:16;;;;;;;8.25;5.67;;;;;;;27.90;57.27;100237.03;1781901;80;22844;-44
2022/07/09 08:54:44;;;;;;;11.10;5.72;;;;;;;28.09;56.51;100236.94;1703856;81;21014;-44
2022/07/09 08:57:10;;;;;;;13.25;5.67;;;;;;;28.18;55.60;100237.09;1750534;81;21030;-44
2022/07/09 08:59:37;;;;;;;12.30;5.90;;;;;;;28.23;56.33;100230.31;1756161;80;20983;-44
2022/07/09 09:02:06;;;;;;;7.87;5.30;;;;;;;28.40;54.87;100218.52;1756000;81;21022;-44
2022/07/09 09:04:39;;;;;;;10.08;5.72;;;;;;;28.49;56.06;100214.94;1716792;83;21067;-44
2022/07/09 09:07:21;;;;;;;9.55;4.85;;;;;;;28.63;55.00;100214.08;1737954;82;20943;-43
2022/07/09 09:09:48;;;;;;;6.20;5.60;;;;;;;28.54;54.83;100212.66;1709415;82;21601;-44
2022/07/09 09:12:15;;;;;;;8.43;5.65;;;;;;;28.38;53.79;100216.00;1735657;82;21026;-43
2022/07/09 09:14:49;;;;;;;9.15;5.33;;;;;;;28.16;55.50;100211.09;1707697;82;21032;-43
2022/07/09 09:17:16;;;;;;;10.18;6.47;;;;;;;28.10;55.96;100227.16;1741131;82;20989;-44
2022/07/09 09:19:43;;;;;;;12.15;6.03;;;;;;;28.01;55.28;100212.92;1739539;82;20946;-44
2022/07/09 09:22:09;;;;;;;6.90;6.08;;;;;;;27.99;56.90;100208.24;1728691;82;21257;-43
2022/07/09 09:24:37;;;;;;;11.45;5.62;;;;;;;28.05;55.26;100202.83;1735212;82;21684;-42
2022/07/09 09:27:05;;;;;;;8.53;5.65;;;;;;;28.15;55.92;100202.74;1721717;83;20979;-43
2022/07/09 09:29:33;;;;;;;16.57;6.05;;;;;;;28.31;55.75;100196.82;1737088;81;21109;-42
2022/07/09 09:32:10;;;;;;;11.20;6.60;;;;;;;28.55;54.24;100198.87;1698505;82;20999;-48
2022/07/09 09:34:37;;;;;;;8.65;5.42;;;;;;;28.87;54.03;100197.50;1717271;83;21047;-44
2022/07/09 09:37:04;;;;;;;14.00;5.97;;;;;;;29.01;51.20;100185.45;1732820;82;20945;-44
2022/07/09 09:39:31;;;;;;;14.60;6.37;;;;;;;29.11;52.72;100190.69;1731662;82;21527;-44
2022/07/09 09:42:00;;;;;;;14.30;5.90;;;;;;;29.31;51.93;100187.81;1712077;83;20958;-44
2022/07/09 09:44:40;;;;;;;11.93;6.10;;;;;;;29.39;50.41;100191.37;1696772;84;21157;-45
2022/07/09 09:47:08;;;;;;;12.20;6.45;;;;;;;29.43;50.35;100187.93;1697662;83;21168;-43
2022/07/09 09:49:36;;;;;;;13.58;6.20;;;;;;;29.64;51.24;100180.86;1691120;84;21026;-43
2022/07/09 09:52:06;;;;;;;15.98;6.75;;;;;;;29.69;49.21;100180.39;1662089;85;21027;-44
2022/07/09 09:54:36;;;;;;;13.43;6.80;;;;;;;29.81;50.35;100184.42;1637301;84;20948;-43
2022/07/09 09:57:14;;;;;;;25.70;11.05;;;;;;;30.07;48.29;100174.71;1690791;83;20977;-43
2022/07/09 09:59:39;;;;;;;15.28;7.35;;;;;;;30.29;50.64;100174.58;1695024;84;21181;-43
2022/07/09 10:02:07;;;;;;;13.25;5.92;;;;;;;30.48;48.28;100173.94;1696742;84;21011;-44
2022/07/09 10:04:34;;;;;;;17.20;5.85;;;;;;;30.32;47.97;100170.75;1670932;84;20961;-43
2022/07/09 10:07:02;;;;;;;7.45;5.78;;;;;;;30.17;47.21;100170.05;1600143;86;20980;-43
2022/07/09 10:09:29;;;;;;;10.72;5.17;;;;;;;30.06;48.04;100163.67;1668734;84;21045;-44
2022/07/09 10:11:56;;;;;;;11.65;5.78;;;;;;;30.12;48.44;100163.05;1696791;84;21337;-44
2022/07/09 10:14:32;;;;;;;15.90;5.90;;;;;;;30.16;48.27;100163.05;1695570;84;21039;-43
2022/07/09 10:17:14;;;;;;;10.70;6.10;;;;;;;30.20;47.87;100162.23;1696627;84;20936;-44
2022/07/09 10:20:04;;;;;;;16.32;5.95;;;;;;;30.39;47.60;100168.57;1692108;84;20972;-43
2022/07/09 10:22:40;;;;;;;9.58;5.80;;;;;;;30.63;46.09;100161.61;1697094;84;21000;-43
2022/07/09 10:25:08;;;;;;;7.65;5.50;;;;;;;30.81;45.27;100161.42;1695100;84;21100;-43
2022/07/09 10:27:45;;;;;;;15.53;5.80;;;;;;;30.90;45.50;100158.77;1697023;84;20890;-44
2022/07/09 10:30:27;;;;;;;11.93;4.78;;;;;;;30.76;46.11;100165.10;1692325;84;20984;-43
2022/07/09 10:33:11;;;;;;;10.55;5.55;;;;;;;30.59;45.13;100152.23;1671592;84;21008;-44
2022/07/09 10:35:47;;;;;;;6.57;5.90;;;;;;;30.53;45.72;100162.25;1697434;84;20941;-44
2022/07/09 10:38:15;;;;;;;9.38;5.55;;;;;;;30.79;45.99;100157.27;1696065;84;21218;-43
2022/07/09 10:40:48;;;;;;;8.05;5.30;;;;;;;30.82;45.83;100152.44;1696790;83;21000;-44
2022/07/09 10:43:15;;;;;;;20.50;5.08;;;;;;;30.82;46.26;100152.92;1671502;84;21414;-44
2022/07/09 10:45:45;;;;;;;15.58;5.25;;;;;;;30.89;45.19;100147.75;1696803;84;20948;-45
2022/07/09 10:48:16;;;;;;;10.45;5.62;;;;;;;30.83;46.60;100153.25;1687017;84;20951;-45
2022/07/09 10:50:45;;;;;;;12.50;5.60;;;;;;;30.94;45.21;100146.73;1696984;84;21226;-43
2022/07/09 10:53:12;;;;;;;8.20;5.00;;;;;;;31.07;43.54;100140.86;1710898;82;21381;-43
2022/07/09 10:55:47;;;;;;;11.95;5.65;;;;;;;31.09;42.86;100140.19;1728113;82;21028;-44
2022/07/09 10:58:21;;;;;;;10.60;5.33;;;;;;;31.14;43.69;100139.69;1720930;82;20965;-44
2022/07/09 11:00:56;;;;;;;14.65;4.97;;;;;;;31.28;43.95;100136.83;1687954;84;20989;-42
2022/07/09 11:03:27;;;;;;;;;;;;;;;31.27;43.10;100126.62;1712371;82;21514;-43
2022/07/09 11:05:54;;;;;;;11.93;5.10;;;;;;;31.28;43.80;100126.14;1705567;83;20142;-46
2022/07/09 11:08:22;;;;;;;10.23;5.20;;;;;;;31.25;42.74;100127.31;1694361;83;20986;-43
2022/07/09 11:10:48;;;;;;;7.60;5.10;;;;;;;31.41;41.05;100129.08;1706590;83;21042;-43
2022/07/09 11:13:15;;;;;;;15.43;4.97;;;;;;;31.48;41.01;100127.41;1707153;83;22299;-43
2022/07/09 11:15:42;;;;;;;10.48;5.30;;;;;;;31.50;41.18;100126.73;1722084;83;21026;-43
2022/07/09 11:18:11;;;;;;;11.93;5.00;;;;;;;31.61;41.45;100119.31;1722499;83;21026;-43
2022/07/09 11:20:45;;;;;;;10.32;5.12;;;;;;;31.86;43.36;100119.20;1717126;83;20908;-43
2022/07/09 11:23:16;;;;;;;11.75;4.95;;;;;;;32.18;42.69;100121.33;1722119;82;21413;-43
2022/07/09 11:25:43;;;;;;;15.18;4.65;;;;;;;32.44;42.48;100112.97;1722584;83;20974;-43
2022/07/09 11:28:19;;;;;;;12.88;4.92;;;;;;;32.76;40.48;100112.34;1716478;83;21091;-44
2022/07/09 11:30:46;;;;;;;10.50;4.97;;;;;;;32.89;40.32;100113.59;1722250;83;20951;-44
2022/07/09 11:33:13;;;;;;;15.98;5.03;;;;;;;32.67;41.01;100120.95;1722481;83;21019;-43
2022/07/09 11:35:39;;;;;;;9.70;5.00;;;;;;;32.37;39.77;100111.52;1722075;83;21027;-44